sensor_id;sensor_type;location;lat;lon;timestamp;pressure;altitude;pressure_sealevel;temperature;humidity
21944;BME280;11136;48.778;9.126;2023-11-19T00:01:25;97368.63;;;8.98;79.58
21944;BME280;11136;48.778;9.126;2023-11-19T00:03:50;97367.78;;;8.97;79.60
21944;BME280;11136;48.778;9.126;2023-11-19T00:06:15;97198.03;;;7.86;79.68
21944;BME280;11136;48.778;9.126;2023-11-19T00:08:42;97280.78;;;8.56;80.73
21944;BME280;11136;48.778;9.126;2023-11-19T00:11:08;97282.69;;;8.38;80.16
21944;BME280;11136;48.778;9.126;2023-11-19T00:13:34;97222.72;;;8.29;80.31
21944;BME280;11136;48.778;9.126;2023-11-19T00:15:59;97368.50;;;9.28;80.66
21944;BME280;11136;48.778;9.126;2023-11-19T00:18:25;97394.00;;;9.29;80.27
21944;BME280;11136;48.778;9.126;2023-11-19T00:20:50;97290.81;;;8.73;80.54
21944;BME280;11136;48.778;9.126;2023-11-19T00:23:15;97177.91;;;8.10;81.31
21944;BME280;11136;48.778;9.126;2023-11-19T00:25:41;97217.84;;;8.41;81.12
21944;BME280;11136;48.778;9.126;2023-11-19T00:28:06;97140.44;;;8.10;80.75
21944;BME280;11136;48.778;9.126;2023-11-19T00:30:31;97354.78;;;9.43;81.38
21944;BME280;11136;48.778;9.126;2023-11-19T00:32:56;97221.81;;;8.59;80.74
21944;BME280;11136;48.778;9.126;2023-11-19T00:35:22;97278.72;;;9.04;82.00
21944;BME280;11136;48.778;9.126;2023-11-19T00:37:47;97294.97;;;9.17;81.49
21944;BME280;11136;48.778;9.126;2023-11-19T00:40:13;97342.41;;;9.49;82.24
21944;BME280;11136;48.778;9.126;2023-11-19T00:42:40;97123.47;;;8.23;81.38
21944;BME280;11136;48.778;9.126;2023-11-19T00:45:06;97341.97;;;9.57;81.93
21944;BME280;11136;48.778;9.126;2023-11-19T00:47:34;97003.03;;;7.47;81.97
21944;BME280;11136;48.778;9.126;2023-11-19T00:50:01;97140.06;;;8.30;81.45
21944;BME280;11136;48.778;9.126;2023-11-19T00:52:26;96969.38;;;7.12;81.68
21944;BME280;11136;48.778;9.126;2023-11-19T00:54:51;96910.31;;;7.05;81.58
21944;BME280;11136;48.778;9.126;2023-11-19T00:57:16;96854.84;;;6.52;81.47
21944;BME280;11136;48.778;9.126;2023-11-19T00:59:42;97337.69;;;9.70;81.86
21944;BME280;11136;48.778;9.126;2023-11-19T01:02:08;96908.84;;;7.16;81.34
21944;BME280;11136;48.778;9.126;2023-11-19T01:04:34;97100.06;;;8.17;82.15
21944;BME280;11136;48.778;9.126;2023-11-19T01:07:02;97197.97;;;8.87;82.08
21944;BME280;11136;48.778;9.126;2023-11-19T01:09:29;96891.19;;;7.13;82.31
21944;BME280;11136;48.778;9.126;2023-11-19T01:11:55;97097.50;;;8.03;82.18
21944;BME280;11136;48.778;9.126;2023-11-19T01:14:20;97017.94;;;7.96;82.09
21944;BME280;11136;48.778;9.126;2023-11-19T01:16:45;96982.69;;;7.74;81.84
21944;BME280;11136;48.778;9.126;2023-11-19T01:19:11;97417.03;;;9.85;81.70
21944;BME280;11136;48.778;9.126;2023-11-19T01:21:36;97135.53;;;8.77;82.44
21944;BME280;11136;48.778;9.126;2023-11-19T01:24:01;97018.28;;;8.04;82.36
21944;BME280;11136;48.778;9.126;2023-11-19T01:26:29;97153.72;;;8.99;82.22
21944;BME280;11136;48.778;9.126;2023-11-19T01:28:54;97098.78;;;8.38;82.10
21944;BME280;11136;48.778;9.126;2023-11-19T01:31:19;97303.00;;;10.06;82.27
21944;BME280;11136;48.778;9.126;2023-11-19T01:33:45;97212.03;;;9.21;82.32
21944;BME280;11136;48.778;9.126;2023-11-19T01:36:14;97014.56;;;8.37;82.49
21944;BME280;11136;48.778;9.126;2023-11-19T01:38:39;97098.38;;;8.85;82.39
21944;BME280;11136;48.778;9.126;2023-11-19T01:41:05;97304.03;;;10.16;82.54
21944;BME280;11136;48.778;9.126;2023-11-19T01:43:40;97123.19;;;9.10;82.22
21944;BME280;11136;48.778;9.126;2023-11-19T01:46:08;97077.47;;;8.79;82.20
21944;BME280;11136;48.778;9.126;2023-11-19T01:48:41;97074.91;;;8.79;82.55
21944;BME280;11136;48.778;9.126;2023-11-19T01:51:08;96928.28;;;7.74;82.24
21944;BME280;11136;48.778;9.126;2023-11-19T01:53:36;97287.88;;;10.28;81.98
21944;BME280;11136;48.778;9.126;2023-11-19T01:56:03;97114.03;;;8.94;82.23
21944;BME280;11136;48.778;9.126;2023-11-19T01:58:30;97203.56;;;9.73;82.63
21944;BME280;11136;48.778;9.126;2023-11-19T02:00:56;96918.72;;;8.04;82.26
21944;BME280;11136;48.778;9.126;2023-11-19T02:03:22;97118.69;;;9.14;82.19
21944;BME280;11136;48.778;9.126;2023-11-19T02:05:48;97124.78;;;9.38;82.45
21944;BME280;11136;48.778;9.126;2023-11-19T02:08:14;97107.88;;;9.23;82.39
21944;BME280;11136;48.778;9.126;2023-11-19T02:10:40;97029.91;;;8.76;82.13
21944;BME280;11136;48.778;9.126;2023-11-19T02:13:05;97298.16;;;10.41;82.69
21944;BME280;11136;48.778;9.126;2023-11-19T02:15:32;96951.66;;;8.21;82.56
21944;BME280;11136;48.778;9.126;2023-11-19T02:18:17;97199.50;;;9.83;83.19
21944;BME280;11136;48.778;9.126;2023-11-19T02:20:42;97158.13;;;9.76;82.42
21944;BME280;11136;48.778;9.126;2023-11-19T02:23:08;97297.03;;;10.45;82.45
21944;BME280;11136;48.778;9.126;2023-11-19T02:25:33;97070.25;;;8.85;82.92
21944;BME280;11136;48.778;9.126;2023-11-19T02:28:00;97272.81;;;10.49;83.26
21944;BME280;11136;48.778;9.126;2023-11-19T02:30:26;97233.50;;;9.85;82.83
21944;BME280;11136;48.778;9.126;2023-11-19T02:32:54;97288.00;;;10.52;82.55
21944;BME280;11136;48.778;9.126;2023-11-19T02:35:22;97096.22;;;9.32;83.01
21944;BME280;11136;48.778;9.126;2023-11-19T02:37:48;97114.84;;;9.46;82.98
21944;BME280;11136;48.778;9.126;2023-11-19T02:40:13;97031.03;;;9.12;82.52
21944;BME280;11136;48.778;9.126;2023-11-19T02:42:39;96825.72;;;7.54;82.40
21944;BME280;11136;48.778;9.126;2023-11-19T02:45:04;96649.44;;;6.80;82.65
21944;BME280;11136;48.778;9.126;2023-11-19T02:47:33;97312.72;;;10.66;82.66
21944;BME280;11136;48.778;9.126;2023-11-19T02:49:59;97288.00;;;10.65;82.92
21944;BME280;11136;48.778;9.126;2023-11-19T02:52:24;97106.22;;;9.22;83.07
21944;BME280;11136;48.778;9.126;2023-11-19T02:54:50;97124.00;;;9.50;82.83
21944;BME280;11136;48.778;9.126;2023-11-19T02:57:15;96882.72;;;8.21;82.73
21944;BME280;11136;48.778;9.126;2023-11-19T02:59:44;97130.41;;;9.43;83.57
21944;BME280;11136;48.778;9.126;2023-11-19T03:02:09;97075.38;;;9.50;83.54
21944;BME280;11136;48.778;9.126;2023-11-19T03:04:36;96855.09;;;8.14;83.69
21944;BME280;11136;48.778;9.126;2023-11-19T03:07:01;96851.72;;;8.13;83.46
21944;BME280;11136;48.778;9.126;2023-11-19T03:09:27;96398.38;;;4.13;82.38
21944;BME280;11136;48.778;9.126;2023-11-19T03:11:54;97063.88;;;9.18;83.36
21944;BME280;11136;48.778;9.126;2023-11-19T03:14:19;97241.34;;;10.47;83.66
21944;BME280;11136;48.778;9.126;2023-11-19T03:16:45;96925.09;;;8.51;83.69
21944;BME280;11136;48.778;9.126;2023-11-19T03:19:11;96804.31;;;7.57;83.48
21944;BME280;11136;48.778;9.126;2023-11-19T03:21:37;97172.22;;;9.95;84.08
21944;BME280;11136;48.778;9.126;2023-11-19T03:24:02;97275.38;;;10.87;83.61
21944;BME280;11136;48.778;9.126;2023-11-19T03:26:28;97182.19;;;9.99;83.75
21944;BME280;11136;48.778;9.126;2023-11-19T03:28:53;97162.41;;;10.01;83.82
21944;BME280;11136;48.778;9.126;2023-11-19T03:31:19;96161.97;;;3.79;82.95
21944;BME280;11136;48.778;9.126;2023-11-19T03:33:45;96893.25;;;8.29;83.37
21944;BME280;11136;48.778;9.126;2023-11-19T03:36:11;97274.13;;;10.93;83.90
21944;BME280;11136;48.778;9.126;2023-11-19T03:38:38;97152.66;;;9.94;84.04
21944;BME280;11136;48.778;9.126;2023-11-19T03:41:12;96918.38;;;8.75;84.04
21944;BME280;11136;48.778;9.126;2023-11-19T03:43:39;97279.84;;;10.96;84.24
21944;BME280;11136;48.778;9.126;2023-11-19T03:46:16;97137.72;;;9.88;84.23
21944;BME280;11136;48.778;9.126;2023-11-19T03:48:41;97070.53;;;9.71;84.02
21944;BME280;11136;48.778;9.126;2023-11-19T03:51:06;97228.94;;;10.66;84.47
21944;BME280;11136;48.778;9.126;2023-11-19T03:53:31;96377.97;;;5.30;83.53
21944;BME280;11136;48.778;9.126;2023-11-19T03:55:57;97035.84;;;9.55;83.92
21944;BME280;11136;48.778;9.126;2023-11-19T03:58:22;97042.81;;;9.52;84.45
21944;BME280;11136;48.778;9.126;2023-11-19T04:00:47;97083.63;;;9.92;84.53
21944;BME280;11136;48.778;9.126;2023-11-19T04:03:13;97056.94;;;9.45;84.29
21944;BME280;11136;48.778;9.126;2023-11-19T04:05:38;97130.25;;;9.97;84.53
21944;BME280;11136;48.778;9.126;2023-11-19T04:08:04;96903.66;;;8.92;84.18
21944;BME280;11136;48.778;9.126;2023-11-19T04:10:29;97167.94;;;10.46;84.35
21944;BME280;11136;48.778;9.126;2023-11-19T04:12:54;97102.97;;;10.09;84.08
21944;BME280;11136;48.778;9.126;2023-11-19T04:15:20;97095.13;;;9.99;84.38
21944;BME280;11136;48.778;9.126;2023-11-19T04:17:45;97073.72;;;9.88;84.62
21944;BME280;11136;48.778;9.126;2023-11-19T04:20:11;97169.16;;;10.40;84.16
21944;BME280;11136;48.778;9.126;2023-11-19T04:22:38;97045.47;;;9.76;84.34
21944;BME280;11136;48.778;9.126;2023-11-19T04:25:04;96946.44;;;9.15;83.94
21944;BME280;11136;48.778;9.126;2023-11-19T04:27:29;97145.59;;;10.35;84.57
21944;BME280;11136;48.778;9.126;2023-11-19T04:29:55;97044.00;;;9.85;84.35
21944;BME280;11136;48.778;9.126;2023-11-19T04:32:20;97261.94;;;11.20;84.66
21944;BME280;11136;48.778;9.126;2023-11-19T04:34:46;97261.09;;;11.20;84.45
21944;BME280;11136;48.778;9.126;2023-11-19T04:37:11;96842.75;;;8.60;84.31
21944;BME280;11136;48.778;9.126;2023-11-19T04:39:36;97238.56;;;11.12;84.45
21944;BME280;11136;48.778;9.126;2023-11-19T04:42:03;97037.69;;;9.78;84.56
21944;BME280;11136;48.778;9.126;2023-11-19T04:44:29;97100.03;;;9.90;84.67
21944;BME280;11136;48.778;9.126;2023-11-19T04:46:55;97262.19;;;11.28;84.74
21944;BME280;11136;48.778;9.126;2023-11-19T04:49:20;97245.09;;;10.80;84.94
21944;BME280;11136;48.778;9.126;2023-11-19T04:51:46;97132.19;;;10.32;84.21
21944;BME280;11136;48.778;9.126;2023-11-19T04:54:16;97274.00;;;11.31;84.57
21944;BME280;11136;48.778;9.126;2023-11-19T04:56:45;97206.94;;;10.88;84.42
21944;BME280;11136;48.778;9.126;2023-11-19T04:59:10;96953.38;;;9.38;84.33
21944;BME280;11136;48.778;9.126;2023-11-19T05:01:35;97065.41;;;9.97;84.75
21944;BME280;11136;48.778;9.126;2023-11-19T05:04:01;97229.28;;;10.86;84.56
21944;BME280;11136;48.778;9.126;2023-11-19T05:06:28;97060.97;;;10.11;84.70
21944;BME280;11136;48.778;9.126;2023-11-19T05:08:54;97173.00;;;10.71;84.80
21944;BME280;11136;48.778;9.126;2023-11-19T05:11:20;97259.59;;;11.41;84.92
21944;BME280;11136;48.778;9.126;2023-11-19T05:13:45;97253.75;;;11.15;84.61
21944;BME280;11136;48.778;9.126;2023-11-19T05:16:11;97078.09;;;10.24;84.43
21944;BME280;11136;48.778;9.126;2023-11-19T05:18:39;97229.28;;;11.22;84.43
21944;BME280;11136;48.778;9.126;2023-11-19T05:21:05;97268.28;;;11.51;84.89
21944;BME280;11136;48.778;9.126;2023-11-19T05:23:32;97045.00;;;9.95;84.75
21944;BME280;11136;48.778;9.126;2023-11-19T05:25:58;97047.00;;;10.16;84.28
21944;BME280;11136;48.778;9.126;2023-11-19T05:28:23;97247.09;;;11.37;84.73
21944;BME280;11136;48.778;9.126;2023-11-19T05:30:49;97145.88;;;10.56;84.24
21944;BME280;11136;48.778;9.126;2023-11-19T05:33:15;97222.34;;;11.12;84.67
21944;BME280;11136;48.778;9.126;2023-11-19T05:35:40;97160.31;;;10.57;84.25
21944;BME280;11136;48.778;9.126;2023-11-19T05:38:06;97117.44;;;10.59;84.50
21944;BME280;11136;48.778;9.126;2023-11-19T05:40:31;97243.03;;;11.21;84.99
21944;BME280;11136;48.778;9.126;2023-11-19T05:42:57;97306.53;;;11.67;84.57
21944;BME280;11136;48.778;9.126;2023-11-19T05:45:22;97070.56;;;10.33;84.27
21944;BME280;11136;48.778;9.126;2023-11-19T05:47:47;97159.84;;;10.89;84.07
21944;BME280;11136;48.778;9.126;2023-11-19T05:50:13;97124.50;;;10.68;84.58
21944;BME280;11136;48.778;9.126;2023-11-19T05:52:39;97207.34;;;11.18;84.07
21944;BME280;11136;48.778;9.126;2023-11-19T05:55:05;97106.56;;;10.68;84.46
21944;BME280;11136;48.778;9.126;2023-11-19T05:57:35;96915.47;;;9.43;83.96
21944;BME280;11136;48.778;9.126;2023-11-19T06:00:00;97276.69;;;11.77;84.72
21944;BME280;11136;48.778;9.126;2023-11-19T06:02:26;97119.72;;;10.88;84.57
21944;BME280;11136;48.778;9.126;2023-11-19T06:04:53;97193.84;;;11.27;84.26
21944;BME280;11136;48.778;9.126;2023-11-19T06:07:18;97214.44;;;11.39;84.50
21944;BME280;11136;48.778;9.126;2023-11-19T06:09:43;97280.94;;;11.78;84.56
21944;BME280;11136;48.778;9.126;2023-11-19T06:12:09;97221.19;;;11.40;84.58
21944;BME280;11136;48.778;9.126;2023-11-19T06:14:34;97257.47;;;11.59;84.68
21944;BME280;11136;48.778;9.126;2023-11-19T06:16:59;97105.53;;;10.71;84.79
21944;BME280;11136;48.778;9.126;2023-11-19T06:19:25;97115.94;;;10.81;84.52
21944;BME280;11136;48.778;9.126;2023-11-19T06:21:50;97219.00;;;11.22;84.51
21944;BME280;11136;48.778;9.126;2023-11-19T06:24:16;97272.22;;;11.68;84.26
21944;BME280;11136;48.778;9.126;2023-11-19T06:26:41;97203.25;;;11.16;84.39
21944;BME280;11136;48.778;9.126;2023-11-19T06:29:06;97214.22;;;11.42;84.34
21944;BME280;11136;48.778;9.126;2023-11-19T06:31:32;97117.34;;;10.85;84.07
21944;BME280;11136;48.778;9.126;2023-11-19T06:33:58;97171.28;;;11.20;84.19
21944;BME280;11136;48.778;9.126;2023-11-19T06:36:24;97227.06;;;11.53;84.23
21944;BME280;11136;48.778;9.126;2023-11-19T06:38:49;97297.56;;;11.96;84.21
21944;BME280;11136;48.778;9.126;2023-11-19T06:41:14;97181.59;;;11.07;84.43
21944;BME280;11136;48.778;9.126;2023-11-19T06:43:40;97318.75;;;12.00;84.22
21944;BME280;11136;48.778;9.126;2023-11-19T06:46:05;97266.22;;;11.80;84.37
21944;BME280;11136;48.778;9.126;2023-11-19T06:48:34;97122.19;;;10.89;84.22
21944;BME280;11136;48.778;9.126;2023-11-19T06:51:00;97216.56;;;11.45;84.21
21944;BME280;11136;48.778;9.126;2023-11-19T06:53:25;97193.72;;;11.29;84.15
21944;BME280;11136;48.778;9.126;2023-11-19T06:55:53;97254.19;;;11.57;84.08
21944;BME280;11136;48.778;9.126;2023-11-19T06:58:18;97281.41;;;11.83;84.37
21944;BME280;11136;48.778;9.126;2023-11-19T07:00:43;97250.97;;;11.66;84.29
21944;BME280;11136;48.778;9.126;2023-11-19T07:03:11;97283.06;;;11.84;84.19
21944;BME280;11136;48.778;9.126;2023-11-19T07:05:36;97279.31;;;11.88;84.22
21944;BME280;11136;48.778;9.126;2023-11-19T07:08:05;97287.97;;;11.87;84.15
21944;BME280;11136;48.778;9.126;2023-11-19T07:10:32;97321.34;;;12.11;84.15
21944;BME280;11136;48.778;9.126;2023-11-19T07:12:57;96957.41;;;9.79;83.80
21944;BME280;11136;48.778;9.126;2023-11-19T07:15:22;97118.72;;;10.78;84.15
21944;BME280;11136;48.778;9.126;2023-11-19T07:17:48;97313.50;;;12.13;84.26
21944;BME280;11136;48.778;9.126;2023-11-19T07:20:13;97161.88;;;11.31;84.30
21944;BME280;11136;48.778;9.126;2023-11-19T07:22:43;97182.22;;;11.34;84.19
21944;BME280;11136;48.778;9.126;2023-11-19T07:25:12;97185.31;;;11.27;84.27
21944;BME280;11136;48.778;9.126;2023-11-19T07:27:38;97302.31;;;12.14;84.21
21944;BME280;11136;48.778;9.126;2023-11-19T07:30:04;97306.50;;;12.15;84.10
21944;BME280;11136;48.778;9.126;2023-11-19T07:32:30;97223.78;;;11.40;84.18
21944;BME280;11136;48.778;9.126;2023-11-19T07:34:55;97155.47;;;11.02;83.95
21944;BME280;11136;48.778;9.126;2023-11-19T07:37:21;97216.09;;;11.51;83.99
21944;BME280;11136;48.778;9.126;2023-11-19T07:39:47;97335.66;;;12.26;83.84
21944;BME280;11136;48.778;9.126;2023-11-19T07:42:12;97294.56;;;12.03;83.92
21944;BME280;11136;48.778;9.126;2023-11-19T07:44:38;97351.44;;;12.33;83.99
21944;BME280;11136;48.778;9.126;2023-11-19T07:47:03;97354.00;;;12.33;83.76
21944;BME280;11136;48.778;9.126;2023-11-19T07:49:29;97172.59;;;11.25;84.05
21944;BME280;11136;48.778;9.126;2023-11-19T07:51:55;97337.66;;;12.34;83.87
21944;BME280;11136;48.778;9.126;2023-11-19T07:54:21;97201.59;;;11.39;83.94
21944;BME280;11136;48.778;9.126;2023-11-19T07:56:46;97189.84;;;11.23;83.68
21944;BME280;11136;48.778;9.126;2023-11-19T07:59:12;97311.41;;;12.18;83.82
21944;BME280;11136;48.778;9.126;2023-11-19T08:01:37;97312.94;;;12.09;83.98
21944;BME280;11136;48.778;9.126;2023-11-19T08:04:02;97283.38;;;12.04;83.43
21944;BME280;11136;48.778;9.126;2023-11-19T08:06:28;97308.16;;;12.16;83.74
21944;BME280;11136;48.778;9.126;2023-11-19T08:08:53;97190.31;;;11.52;83.54
21944;BME280;11136;48.778;9.126;2023-11-19T08:11:19;97263.47;;;11.94;83.64
21944;BME280;11136;48.778;9.126;2023-11-19T08:13:45;97333.72;;;12.52;83.66
21944;BME280;11136;48.778;9.126;2023-11-19T08:16:10;97238.22;;;11.88;83.54
21944;BME280;11136;48.778;9.126;2023-11-19T08:18:36;97342.63;;;12.60;83.36
21944;BME280;11136;48.778;9.126;2023-11-19T08:21:02;97232.28;;;11.99;83.19
21944;BME280;11136;48.778;9.126;2023-11-19T08:23:30;97161.53;;;11.60;83.40
21944;BME280;11136;48.778;9.126;2023-11-19T08:25:55;97269.59;;;12.16;83.29
21944;BME280;11136;48.778;9.126;2023-11-19T08:28:20;97218.84;;;11.95;83.32
21944;BME280;11136;48.778;9.126;2023-11-19T08:30:46;97160.88;;;11.45;82.89
21944;BME280;11136;48.778;9.126;2023-11-19T08:33:11;97347.00;;;12.93;83.15
21944;BME280;11136;48.778;9.126;2023-11-19T08:35:37;97320.09;;;12.97;82.87
21944;BME280;11136;48.778;9.126;2023-11-19T08:38:02;97326.28;;;13.16;82.98
21944;BME280;11136;48.778;9.126;2023-11-19T08:40:27;97230.13;;;12.62;82.81
21944;BME280;11136;48.778;9.126;2023-11-19T08:42:53;97238.44;;;12.65;82.11
21944;BME280;11136;48.778;9.126;2023-11-19T08:45:18;97307.56;;;13.14;81.99
21944;BME280;11136;48.778;9.126;2023-11-19T08:47:44;97179.31;;;12.32;82.48
21944;BME280;11136;48.778;9.126;2023-11-19T08:50:10;97045.91;;;11.26;81.88
21944;BME280;11136;48.778;9.126;2023-11-19T08:52:36;97334.94;;;13.15;82.58
21944;BME280;11136;48.778;9.126;2023-11-19T08:55:01;97257.03;;;12.57;82.36
21944;BME280;11136;48.778;9.126;2023-11-19T08:57:27;97156.28;;;12.08;82.58
21944;BME280;11136;48.778;9.126;2023-11-19T08:59:52;97276.47;;;12.73;82.27
21944;BME280;11136;48.778;9.126;2023-11-19T09:02:17;97355.06;;;13.33;82.61
21944;BME280;11136;48.778;9.126;2023-11-19T09:04:43;97236.09;;;12.62;82.40
21944;BME280;11136;48.778;9.126;2023-11-19T09:07:09;97233.44;;;12.75;82.61
21944;BME280;11136;48.778;9.126;2023-11-19T09:09:37;97247.09;;;12.86;81.88
21944;BME280;11136;48.778;9.126;2023-11-19T09:12:03;97354.53;;;13.72;81.98
21944;BME280;11136;48.778;9.126;2023-11-19T09:14:29;97254.69;;;13.22;81.76
21944;BME280;11136;48.778;9.126;2023-11-19T09:16:56;97291.44;;;13.24;81.92
21944;BME280;11136;48.778;9.126;2023-11-19T09:19:21;97203.38;;;12.75;81.91
21944;BME280;11136;48.778;9.126;2023-11-19T09:21:46;97366.41;;;13.64;81.91
21944;BME280;11136;48.778;9.126;2023-11-19T09:24:14;97242.75;;;12.87;82.21
21944;BME280;11136;48.778;9.126;2023-11-19T09:26:40;97102.25;;;11.74;82.04
21944;BME280;11136;48.778;9.126;2023-11-19T09:29:09;96910.78;;;10.81;81.97
21944;BME280;11136;48.778;9.126;2023-11-19T09:31:34;97281.47;;;12.85;82.40
21944;BME280;11136;48.778;9.126;2023-11-19T09:34:00;97217.53;;;12.58;82.12
21944;BME280;11136;48.778;9.126;2023-11-19T09:36:26;96965.19;;;11.53;81.39
21944;BME280;11136;48.778;9.126;2023-11-19T09:38:51;97118.19;;;12.02;81.68
21944;BME280;11136;48.778;9.126;2023-11-19T09:41:16;97211.03;;;13.09;81.44
21944;BME280;11136;48.778;9.126;2023-11-19T09:43:45;97194.06;;;13.06;81.31
21944;BME280;11136;48.778;9.126;2023-11-19T09:46:10;97030.81;;;12.24;81.99
21944;BME280;11136;48.778;9.126;2023-11-19T09:48:40;97263.50;;;13.51;81.33
21944;BME280;11136;48.778;9.126;2023-11-19T09:51:06;96833.84;;;11.25;81.10
21944;BME280;11136;48.778;9.126;2023-11-19T09:53:32;97355.09;;;14.72;80.96
21944;BME280;11136;48.778;9.126;2023-11-19T09:56:05;96486.25;;;8.78;80.27
21944;BME280;11136;48.778;9.126;2023-11-19T09:58:37;96674.81;;;9.69;80.31
21944;BME280;11136;48.778;9.126;2023-11-19T10:01:02;97356.78;;;14.83;79.75
21944;BME280;11136;48.778;9.126;2023-11-19T10:03:35;96695.63;;;10.78;79.62
21944;BME280;11136;48.778;9.126;2023-11-19T10:06:03;97309.22;;;14.85;80.56
21944;BME280;11136;48.778;9.126;2023-11-19T10:08:29;97286.75;;;14.46;80.30
21944;BME280;11136;48.778;9.126;2023-11-19T10:10:55;97353.69;;;15.19;80.32
21944;BME280;11136;48.778;9.126;2023-11-19T10:13:26;97174.31;;;13.92;80.28
21944;BME280;11136;48.778;9.126;2023-11-19T10:15:52;97223.13;;;14.35;80.00
21944;BME280;11136;48.778;9.126;2023-11-19T10:18:17;97235.50;;;14.62;80.37
21944;BME280;11136;48.778;9.126;2023-11-19T10:20:43;97273.75;;;15.18;79.41
21944;BME280;11136;48.778;9.126;2023-11-19T10:23:09;97043.19;;;14.08;78.60
21944;BME280;11136;48.778;9.126;2023-11-19T10:25:35;97270.84;;;15.61;78.20
21944;BME280;11136;48.778;9.126;2023-11-19T10:28:01;97254.00;;;15.67;78.14
21944;BME280;11136;48.778;9.126;2023-11-19T10:30:29;97339.44;;;16.04;77.37
21944;BME280;11136;48.778;9.126;2023-11-19T10:33:09;97058.22;;;14.03;74.72
21944;BME280;11136;48.778;9.126;2023-11-19T10:35:51;97350.88;;;15.72;76.82
21944;BME280;11136;48.778;9.126;2023-11-19T10:38:19;97110.66;;;14.13;76.54
21944;BME280;11136;48.778;9.126;2023-11-19T10:40:46;97089.34;;;14.11;77.01
21944;BME280;11136;48.778;9.126;2023-11-19T10:43:12;97231.88;;;15.24;76.21
21944;BME280;11136;48.778;9.126;2023-11-19T10:45:38;97317.41;;;15.71;76.37
21944;BME280;11136;48.778;9.126;2023-11-19T10:48:04;97071.03;;;14.14;73.68
21944;BME280;11136;48.778;9.126;2023-11-19T10:50:39;97263.47;;;15.47;75.60
21944;BME280;11136;48.778;9.126;2023-11-19T10:53:05;97240.34;;;15.45;75.58
21944;BME280;11136;48.778;9.126;2023-11-19T10:55:32;97373.78;;;16.15;75.86
21944;BME280;11136;48.778;9.126;2023-11-19T10:58:07;97354.84;;;16.15;75.03
21944;BME280;11136;48.778;9.126;2023-11-19T11:00:51;97140.63;;;14.85;72.42
21944;BME280;11136;48.778;9.126;2023-11-19T11:03:19;97135.28;;;14.67;73.32
21944;BME280;11136;48.778;9.126;2023-11-19T11:05:48;97210.09;;;15.07;73.19
21944;BME280;11136;48.778;9.126;2023-11-19T11:08:14;97083.44;;;14.39;73.35
21944;BME280;11136;48.778;9.126;2023-11-19T11:10:44;96858.97;;;12.40;73.59
21944;BME280;11136;48.778;9.126;2023-11-19T11:13:11;97172.59;;;15.03;73.16
21944;BME280;11136;48.778;9.126;2023-11-19T11:15:38;97248.09;;;15.45;73.31
21944;BME280;11136;48.778;9.126;2023-11-19T11:18:08;97252.03;;;15.40;72.17
21944;BME280;11136;48.778;9.126;2023-11-19T11:20:34;97225.50;;;15.18;72.99
21944;BME280;11136;48.778;9.126;2023-11-19T11:28:43;97137.13;;;14.46;72.46
21944;BME280;11136;48.778;9.126;2023-11-19T11:36:26;97224.09;;;14.64;70.70
21944;BME280;11136;48.778;9.126;2023-11-19T11:38:53;97164.63;;;14.35;70.41
21944;BME280;11136;48.778;9.126;2023-11-19T11:41:23;97090.03;;;13.83;69.95
21944;BME280;11136;48.778;9.126;2023-11-19T11:43:50;97310.25;;;15.44;71.15
21944;BME280;11136;48.778;9.126;2023-11-19T11:49:06;97123.28;;;14.47;70.53
21944;BME280;11136;48.778;9.126;2023-11-19T11:57:07;97303.25;;;16.04;71.13
21944;BME280;11136;48.778;9.126;2023-11-19T12:02:15;97194.41;;;15.58;70.03
21944;BME280;11136;48.778;9.126;2023-11-19T12:04:41;97102.56;;;15.35;69.14
21944;BME280;11136;48.778;9.126;2023-11-19T12:07:20;97293.09;;;16.49;68.42
21944;BME280;11136;48.778;9.126;2023-11-19T12:10:06;97297.88;;;16.53;67.76
21944;BME280;11136;48.778;9.126;2023-11-19T12:12:33;97294.94;;;16.86;67.78
21944;BME280;11136;48.778;9.126;2023-11-19T12:15:01;96978.50;;;15.08;66.26
21944;BME280;11136;48.778;9.126;2023-11-19T12:20:08;97012.91;;;15.18;62.61
21944;BME280;11136;48.778;9.126;2023-11-19T12:22:41;97303.97;;;16.81;62.14
21944;BME280;11136;48.778;9.126;2023-11-19T12:25:08;97058.56;;;15.27;61.85
21944;BME280;11136;48.778;9.126;2023-11-19T12:27:39;97254.28;;;16.49;61.28
21944;BME280;11136;48.778;9.126;2023-11-19T12:30:05;97041.97;;;15.20;59.14
21944;BME280;11136;48.778;9.126;2023-11-19T12:32:41;97077.97;;;15.50;59.25
21944;BME280;11136;48.778;9.126;2023-11-19T12:35:08;97276.16;;;16.74;59.39
21944;BME280;11136;48.778;9.126;2023-11-19T12:37:44;97142.88;;;16.13;58.39
21944;BME280;11136;48.778;9.126;2023-11-19T12:40:20;97246.41;;;16.88;57.31
21944;BME280;11136;48.778;9.126;2023-11-19T12:42:47;97256.84;;;16.68;57.46
21944;BME280;11136;48.778;9.126;2023-11-19T12:45:13;97256.59;;;16.52;56.92
21944;BME280;11136;48.778;9.126;2023-11-19T12:47:39;97102.34;;;15.19;56.84
21944;BME280;11136;48.778;9.126;2023-11-19T12:50:06;97251.50;;;16.33;57.37
21944;BME280;11136;48.778;9.126;2023-11-19T12:52:33;97274.13;;;16.11;57.54
21944;BME280;11136;48.778;9.126;2023-11-19T12:54:58;97024.19;;;14.97;57.22
21944;BME280;11136;48.778;9.126;2023-11-19T12:57:42;97108.84;;;15.61;58.00
21944;BME280;11136;48.778;9.126;2023-11-19T13:00:18;97240.34;;;16.69;57.62
21944;BME280;11136;48.778;9.126;2023-11-19T13:08:04;97149.84;;;16.40;55.89
21944;BME280;11136;48.778;9.126;2023-11-19T13:10:30;97234.47;;;17.04;56.08
21944;BME280;11136;48.778;9.126;2023-11-19T13:13:14;97062.09;;;15.92;56.19
21944;BME280;11136;48.778;9.126;2023-11-19T13:15:39;97147.50;;;16.47;55.42
21944;BME280;11136;48.778;9.126;2023-11-19T13:18:05;97058.75;;;16.09;54.47
21944;BME280;11136;48.778;9.126;2023-11-19T13:20:32;97103.03;;;16.34;54.74
21944;BME280;11136;48.778;9.126;2023-11-19T13:22:59;97000.72;;;15.47;54.39
21944;BME280;11136;48.778;9.126;2023-11-19T13:25:25;97121.72;;;15.90;54.58
21944;BME280;11136;48.778;9.126;2023-11-19T13:27:51;97005.97;;;15.09;54.99
21944;BME280;11136;48.778;9.126;2023-11-19T13:30:16;97037.22;;;15.15;54.69